createdAt,value
2019-03-06T00:00:19.828Z,1000.09
2019-03-06T00:01:19.809Z,1000.07
2019-03-06T00:02:19.808Z,1000.13
2019-03-06T00:03:19.817Z,1000.14
2019-03-06T00:04:19.814Z,1000.12
2019-03-06T00:05:19.853Z,1000.09
2019-03-06T00:06:19.771Z,1000.06
2019-03-06T00:07:19.761Z,1000.06
2019-03-06T00:08:19.759Z,1000.01
2019-03-06T00:09:19.757Z,1000.02
2019-03-06T00:10:19.741Z,999.98
2019-03-06T00:11:19.803Z,999.97
2019-03-06T00:12:19.720Z,999.99
2019-03-06T00:13:19.702Z,999.98
2019-03-06T00:14:19.749Z,999.94
2019-03-06T00:15:19.736Z,1000.00
2019-03-06T00:17:51.869Z,1000.03
2019-03-06T00:18:51.800Z,1000.02
2019-03-06T00:19:51.795Z,1000.03
2019-03-06T00:20:51.790Z,1000.05
2019-03-06T00:21:51.784Z,1000.03
2019-03-06T00:22:51.773Z,1000.08
2019-03-06T00:23:51.804Z,1000.03
2019-03-06T00:24:51.745Z,1000.08
2019-03-06T00:25:51.739Z,1000.07
2019-03-06T00:26:51.728Z,1000.04
2019-03-06T00:27:51.762Z,1000.03
2019-03-06T00:28:51.713Z,1000.03
2019-03-06T00:29:51.699Z,1000.01
2019-03-06T00:30:51.701Z,1000.01
2019-03-06T00:31:51.704Z,999.97
2019-03-06T00:32:51.675Z,999.94
2019-03-06T00:33:51.674Z,999.95
2019-03-06T00:34:51.654Z,999.94
2019-03-06T00:36:00.327Z,999.93
2019-03-06T00:37:45.133Z,999.98
2019-03-06T00:38:45.059Z,999.96
2019-03-06T00:39:45.056Z,999.97
2019-03-06T00:40:45.093Z,1000.03
2019-03-06T00:41:45.030Z,1000.00
2019-03-06T00:42:45.025Z,1000.01
2019-03-06T00:43:45.028Z,999.99
2019-03-06T00:44:45.057Z,999.96
2019-03-06T00:45:45.006Z,999.96
2019-03-06T00:46:44.995Z,999.95
2019-03-06T00:47:44.981Z,999.97
2019-03-06T00:48:44.963Z,999.90
2019-03-06T00:49:44.976Z,999.87
2019-03-06T00:50:44.975Z,999.85
2019-03-06T00:51:44.988Z,999.80
2019-03-06T00:52:44.992Z,999.78
2019-03-06T00:53:44.921Z,999.75
2019-03-06T00:54:44.917Z,999.67
2019-03-06T00:55:44.917Z,999.67
2019-03-06T00:56:44.914Z,999.69
2019-03-06T00:57:44.932Z,999.71
2019-03-06T00:58:44.904Z,999.73
2019-03-06T00:59:44.893Z,999.75
2019-03-06T01:00:44.872Z,999.74
2019-03-06T01:01:44.883Z,999.73
2019-03-06T01:02:44.913Z,999.70
2019-03-06T01:03:44.857Z,999.75
2019-03-06T01:04:44.837Z,999.74
2019-03-06T01:05:44.821Z,999.72
2019-03-06T01:06:44.808Z,999.67
2019-03-06T01:07:44.824Z,999.71
2019-03-06T01:08:44.819Z,999.69
2019-03-06T01:09:44.797Z,999.63
2019-03-06T01:10:44.775Z,999.65
2019-03-06T01:11:44.830Z,999.64
2019-03-06T01:12:44.817Z,999.65
2019-03-06T01:13:44.793Z,999.69
2019-03-06T01:14:44.751Z,999.71
2019-03-06T01:15:44.738Z,999.66
2019-03-06T01:16:44.720Z,999.64
2019-03-06T01:17:44.752Z,999.60
2019-03-06T01:18:44.724Z,999.58
2019-03-06T01:19:44.731Z,999.57
2019-03-06T01:20:44.708Z,999.55
2019-03-06T01:21:44.727Z,999.56
2019-03-06T01:22:44.718Z,999.58
2019-03-06T01:23:44.672Z,999.57
2019-03-06T01:24:44.670Z,999.54
2019-03-06T01:25:44.639Z,999.58
2019-03-06T01:26:44.640Z,999.53
2019-03-06T01:27:44.639Z,999.51
2019-03-06T01:28:44.635Z,999.51
2019-03-06T01:29:44.638Z,999.51
2019-03-06T01:30:44.610Z,999.44
2019-03-06T01:31:44.595Z,999.46
2019-03-06T01:32:44.607Z,999.44
2019-03-06T01:33:44.578Z,999.47
2019-03-06T01:34:44.568Z,999.43
2019-03-06T01:35:44.575Z,999.47
2019-03-06T01:36:44.555Z,999.45
2019-03-06T01:37:44.534Z,999.43
2019-03-06T01:38:44.537Z,999.42
2019-03-06T01:39:44.528Z,999.39
2019-03-06T01:40:44.520Z,999.35
2019-03-06T01:41:44.509Z,999.37
2019-03-06T01:42:44.521Z,999.37
2019-03-06T01:43:44.492Z,999.33
2019-03-06T01:44:44.480Z,999.30
2019-03-06T01:45:44.486Z,999.29
2019-03-06T01:46:44.464Z,999.28
2019-03-06T01:47:44.466Z,999.23
2019-03-06T01:48:44.463Z,999.23
2019-03-06T01:49:44.440Z,999.25
2019-03-06T01:50:44.422Z,999.23
2019-03-06T01:51:44.426Z,999.22
2019-03-06T01:52:44.416Z,999.22
2019-03-06T01:53:44.402Z,999.18
2019-03-06T01:54:44.415Z,999.13
2019-03-06T01:55:44.400Z,999.12
2019-03-06T01:56:44.379Z,999.11
2019-03-06T01:57:44.371Z,999.08
2019-03-06T01:58:44.358Z,999.06
2019-03-06T01:59:44.356Z,999.04
2019-03-06T02:00:44.337Z,999.05
2019-03-06T02:01:44.333Z,999.07
2019-03-06T02:02:44.352Z,999.05
2019-03-06T02:03:44.350Z,999.04
2019-03-06T02:04:44.308Z,998.98
2019-03-06T02:05:44.303Z,998.93
2019-03-06T02:06:44.296Z,998.93
2019-03-06T02:07:44.282Z,998.90
2019-03-06T02:08:44.269Z,998.84
2019-03-06T02:09:44.265Z,998.84
2019-03-06T02:10:44.250Z,998.87
2019-03-06T02:11:44.238Z,998.84
2019-03-06T02:12:44.281Z,998.80
2019-03-06T02:13:44.223Z,998.79
2019-03-06T02:14:44.232Z,998.80
2019-03-06T02:15:44.207Z,998.85
2019-03-06T02:16:44.235Z,998.86
2019-03-06T02:17:44.199Z,998.83
2019-03-06T02:18:44.182Z,998.78
2019-03-06T02:19:44.169Z,998.79
2019-03-06T02:20:44.162Z,998.77
2019-03-06T02:21:44.184Z,998.78
2019-03-06T02:22:44.145Z,998.72
2019-03-06T02:23:44.146Z,998.77
2019-03-06T02:24:44.123Z,998.75
2019-03-06T02:25:44.115Z,998.74
2019-03-06T02:26:44.115Z,998.67
2019-03-06T02:27:44.118Z,998.63
2019-03-06T02:28:44.108Z,998.54
2019-03-06T02:29:56.507Z,998.56
2019-03-06T02:31:56.910Z,998.50
2019-03-06T02:32:56.787Z,998.48
2019-03-06T02:33:56.806Z,998.44
2019-03-06T02:34:56.764Z,998.41
2019-03-06T02:35:57.477Z,998.40
2019-03-06T02:36:56.752Z,998.42
2019-03-06T02:37:56.765Z,998.43
2019-03-06T02:38:56.738Z,998.47
2019-03-06T02:39:56.740Z,998.47
2019-03-06T02:40:56.720Z,998.47
2019-03-06T02:41:56.709Z,998.49
2019-03-06T02:42:56.698Z,998.46
2019-03-06T02:43:56.714Z,998.38
2019-03-06T02:44:56.676Z,998.36
2019-03-06T02:45:56.667Z,998.36
2019-03-06T02:46:56.654Z,998.35
2019-03-06T02:47:56.663Z,998.40
2019-03-06T02:48:56.664Z,998.40
2019-03-06T02:49:56.621Z,998.40
2019-03-06T02:50:56.741Z,998.41
2019-03-06T02:51:56.624Z,998.41
2019-03-06T02:52:56.599Z,998.45
2019-03-06T02:53:56.584Z,998.44
2019-03-06T02:54:56.590Z,998.45
2019-03-06T02:55:56.577Z,998.51
2019-03-06T02:56:56.564Z,998.39
2019-03-06T03:13:49.813Z,998.15
2019-03-06T03:14:49.783Z,998.16
2019-03-06T03:15:49.797Z,998.14
2019-03-06T03:16:49.764Z,998.15
2019-03-06T03:17:49.738Z,998.15
2019-03-06T03:18:49.745Z,998.09
2019-03-06T03:19:49.726Z,998.16
2019-03-06T03:20:49.701Z,998.18
2019-03-06T03:21:49.705Z,998.21
2019-03-06T03:22:49.680Z,998.21
2019-03-06T03:23:49.660Z,998.26
2019-03-06T03:24:49.697Z,998.18
2019-03-06T03:25:49.639Z,998.15
2019-03-06T03:26:49.639Z,998.11
2019-03-06T03:27:49.643Z,998.11
2019-03-06T03:28:49.618Z,998.13
2019-03-06T03:29:49.598Z,998.21
2019-03-06T03:30:49.609Z,998.25
2019-03-06T03:31:49.612Z,998.23
2019-03-06T03:32:49.592Z,998.22
2019-03-06T03:33:49.602Z,998.21
2019-03-06T03:34:49.561Z,998.15
2019-03-06T03:35:49.541Z,998.13
2019-03-06T03:36:49.575Z,998.11
2019-03-06T03:37:49.514Z,998.13
2019-03-06T03:38:49.527Z,998.07
2019-03-06T03:39:49.512Z,998.04
2019-03-06T03:40:49.491Z,998.00
2019-03-06T03:41:49.493Z,998.06
2019-03-06T03:42:49.484Z,998.08
2019-03-06T03:43:49.459Z,998.07
2019-03-06T03:44:49.458Z,998.07
2019-03-06T03:45:49.450Z,998.11
2019-03-06T03:46:49.429Z,998.09
2019-03-06T03:47:49.485Z,998.06
2019-03-06T03:48:49.438Z,998.05
2019-03-06T03:49:49.396Z,998.04
2019-03-06T03:50:49.383Z,998.03
2019-03-06T03:51:49.428Z,998.03
2019-03-06T03:52:49.367Z,998.02
2019-03-06T03:53:49.354Z,997.98
2019-03-06T03:54:49.348Z,998.02
2019-03-06T03:55:49.357Z,998.00
2019-03-06T03:56:49.355Z,997.99
2019-03-06T03:57:49.352Z,997.95
2019-03-06T03:58:49.351Z,997.97
2019-03-06T03:59:49.315Z,998.01
2019-03-06T04:00:49.293Z,998.00
2019-03-06T04:01:49.321Z,997.98
2019-03-06T04:02:49.319Z,997.98
2019-03-06T04:03:49.289Z,998.01
2019-03-06T04:04:49.294Z,998.02
2019-03-06T04:05:49.279Z,998.01
2019-03-06T04:06:49.239Z,998.04
2019-03-06T04:07:49.254Z,998.08
2019-03-06T04:08:49.215Z,998.02
2019-03-06T04:09:49.230Z,998.03
2019-03-06T04:10:49.201Z,997.98
2019-03-06T04:11:49.189Z,997.96
2019-03-06T04:12:49.201Z,997.93
2019-03-06T04:13:49.191Z,997.92
2019-03-06T04:14:49.165Z,997.86
2019-03-06T04:15:49.141Z,997.84
2019-03-06T04:16:49.127Z,997.87
2019-03-06T04:17:49.120Z,997.84
2019-03-06T04:18:49.107Z,997.86
2019-03-06T04:19:49.120Z,997.86
2019-03-06T04:20:49.092Z,997.92
2019-03-06T04:21:49.112Z,997.94
2019-03-06T04:22:49.073Z,997.96
2019-03-06T04:23:49.102Z,997.99
2019-03-06T04:24:49.045Z,998.00
2019-03-06T04:25:49.051Z,997.97
2019-03-06T04:26:49.049Z,997.94
2019-03-06T04:27:49.024Z,997.95
2019-03-06T04:28:49.054Z,997.98
2019-03-06T04:29:49.001Z,997.98
2019-03-06T04:30:49.015Z,998.00
2019-03-06T04:31:48.981Z,998.01
2019-03-06T04:32:49.027Z,998.00
2019-03-06T04:33:48.978Z,998.01
2019-03-06T04:34:48.952Z,997.98
2019-03-06T04:35:49.010Z,997.94
2019-03-06T04:36:48.948Z,997.92
2019-03-06T04:37:48.925Z,997.85
2019-03-06T04:38:48.913Z,997.82
2019-03-06T04:39:48.907Z,997.80
2019-03-06T04:40:48.915Z,997.71
2019-03-06T04:41:48.890Z,997.72
2019-03-06T04:42:48.870Z,997.61
2019-03-06T04:43:48.859Z,997.57
2019-03-06T04:44:48.851Z,997.51
2019-03-06T04:45:48.865Z,997.49
2019-03-06T04:46:48.845Z,997.48
2019-03-06T04:47:48.817Z,997.51
2019-03-06T04:48:48.809Z,997.51
2019-03-06T04:49:52.571Z,997.57
2019-03-06T04:50:48.794Z,997.55
2019-03-06T04:51:48.788Z,997.55
2019-03-06T04:52:48.784Z,997.50
2019-03-06T04:53:48.790Z,997.46
2019-03-06T04:54:48.776Z,997.42
2019-03-06T04:55:48.748Z,997.43
2019-03-06T04:56:48.726Z,997.41
2019-03-06T04:57:48.730Z,997.41
2019-03-06T04:58:48.745Z,997.39
2019-03-06T04:59:48.709Z,997.39
2019-03-06T05:00:48.686Z,997.41
2019-03-06T05:01:48.682Z,997.41
2019-03-06T05:02:48.669Z,997.45
2019-03-06T05:03:48.681Z,997.42
2019-03-06T05:04:48.673Z,997.36
2019-03-06T05:05:48.672Z,997.30
2019-03-06T05:06:48.635Z,997.32
2019-03-06T05:07:48.629Z,997.28
2019-03-06T05:08:48.613Z,997.24
2019-03-06T05:09:48.599Z,997.27
2019-03-06T05:10:48.598Z,997.21
2019-03-06T05:11:48.584Z,997.21
2019-03-06T05:12:48.571Z,997.18
2019-03-06T05:13:48.560Z,997.17
2019-03-06T05:14:48.555Z,997.18
2019-03-06T05:15:48.577Z,997.15
2019-03-06T05:16:48.545Z,997.16
2019-03-06T05:17:48.543Z,997.13
2019-03-06T05:18:48.555Z,997.12
2019-03-06T05:19:48.519Z,997.12
2019-03-06T05:20:48.591Z,997.17
2019-03-06T05:21:48.518Z,997.17
2019-03-06T05:22:48.509Z,997.17
2019-03-06T05:23:48.467Z,997.19
2019-03-06T05:24:48.462Z,997.21
2019-03-06T05:25:48.463Z,997.22
2019-03-06T05:26:48.467Z,997.21
2019-03-06T05:27:48.421Z,997.22
2019-03-06T05:28:48.421Z,997.15
2019-03-06T05:29:48.441Z,997.18
2019-03-06T05:30:48.430Z,997.17
2019-03-06T05:31:48.390Z,997.19
2019-03-06T05:32:48.377Z,997.21
2019-03-06T05:33:48.378Z,997.20
2019-03-06T05:34:48.389Z,997.18
2019-03-06T05:35:48.339Z,997.20
2019-03-06T05:36:48.376Z,997.18
2019-03-06T05:37:48.384Z,997.20
2019-03-06T05:38:48.345Z,997.17
2019-03-06T05:39:48.300Z,997.18
2019-03-06T05:40:48.321Z,997.19
2019-03-06T05:41:48.319Z,997.16
2019-03-06T05:42:48.319Z,997.13
2019-03-06T05:43:48.265Z,997.17
2019-03-06T05:44:48.256Z,997.13
2019-03-06T05:45:48.245Z,997.12
2019-03-06T05:46:48.246Z,997.09
2019-03-06T05:47:48.247Z,997.07
2019-03-06T05:48:48.209Z,997.06
2019-03-06T05:49:48.204Z,997.04
2019-03-06T05:50:48.191Z,997.00
2019-03-06T05:51:48.181Z,996.97
2019-03-06T05:52:48.194Z,996.94
2019-03-06T05:53:48.159Z,996.93
2019-03-06T05:54:48.152Z,996.94
2019-03-06T05:55:48.145Z,996.90
2019-03-06T05:56:48.531Z,996.93
2019-03-06T05:57:48.132Z,996.93
2019-03-06T05:58:48.118Z,996.95
2019-03-06T05:59:48.142Z,996.93
2019-03-06T06:00:48.105Z,996.90
2019-03-06T06:01:48.086Z,996.88
2019-03-06T06:02:48.099Z,996.78
2019-03-06T06:03:48.116Z,996.78
2019-03-06T06:04:48.072Z,996.77
2019-03-06T06:05:48.059Z,996.70
2019-03-06T06:06:48.082Z,996.69
2019-03-06T06:07:48.021Z,996.65
2019-03-06T06:08:48.023Z,996.61
2019-03-06T06:09:48.020Z,996.60
2019-03-06T06:10:48.021Z,996.58
2019-03-06T06:11:47.994Z,996.60
2019-03-06T06:12:47.973Z,996.59
2019-03-06T06:13:47.982Z,996.60
2019-03-06T06:14:47.968Z,996.56
2019-03-06T06:15:47.944Z,996.58
2019-03-06T06:16:47.939Z,996.58
2019-03-06T06:17:47.955Z,996.55
2019-03-06T06:18:47.912Z,996.58
2019-03-06T06:19:47.925Z,996.58
2019-03-06T06:20:47.919Z,996.60
2019-03-06T06:21:47.886Z,996.60
2019-03-06T06:22:47.924Z,996.60
2019-03-06T06:23:47.882Z,996.58
2019-03-06T06:24:47.850Z,996.52
2019-03-06T06:25:47.921Z,996.45
2019-03-06T06:26:47.839Z,996.40
2019-03-06T06:27:47.878Z,996.40
2019-03-06T06:28:47.814Z,996.40
2019-03-06T06:29:47.823Z,996.41
2019-03-06T06:30:47.794Z,996.41
2019-03-06T06:31:47.833Z,996.39
2019-03-06T06:32:47.770Z,996.37
2019-03-06T06:33:47.771Z,996.38
2019-03-06T06:34:47.763Z,996.35
2019-03-06T06:35:47.771Z,996.34
2019-03-06T06:36:47.746Z,996.32
2019-03-06T06:37:47.729Z,996.33
2019-03-06T06:38:47.722Z,996.32
2019-03-06T06:39:47.707Z,996.40
2019-03-06T06:40:47.692Z,996.43
2019-03-06T06:41:47.684Z,996.46
2019-03-06T06:42:47.674Z,996.42
2019-03-06T06:43:47.665Z,996.45
2019-03-06T06:44:47.663Z,996.46
2019-03-06T06:45:47.661Z,996.46
2019-03-06T06:46:47.640Z,996.45
2019-03-06T06:47:47.639Z,996.43
2019-03-06T06:48:47.614Z,996.44
2019-03-06T06:49:47.624Z,996.45
2019-03-06T06:50:47.600Z,996.41
2019-03-06T06:51:47.597Z,996.41
2019-03-06T06:52:47.579Z,996.32
2019-03-06T06:53:47.598Z,996.34
2019-03-06T06:54:47.552Z,996.31
2019-03-06T06:55:47.544Z,996.27
2019-03-06T06:56:47.536Z,996.28
2019-03-06T06:57:47.529Z,996.24
2019-03-06T06:58:47.515Z,996.25
2019-03-06T06:59:47.517Z,996.23
2019-03-06T07:00:47.502Z,996.23
2019-03-06T07:01:47.485Z,996.22
2019-03-06T07:02:47.508Z,996.27
2019-03-06T07:03:47.474Z,996.30
2019-03-06T07:04:47.465Z,996.35
2019-03-06T07:05:47.449Z,996.28
2019-03-06T07:06:47.467Z,996.30
2019-03-06T07:07:47.433Z,996.23
2019-03-06T07:08:49.307Z,996.20
2019-03-06T07:09:47.431Z,996.15
2019-03-06T07:10:47.409Z,996.13
2019-03-06T07:11:47.448Z,996.05
2019-03-06T07:12:47.397Z,996.08
2019-03-06T07:13:47.409Z,996.07
2019-03-06T07:14:47.359Z,996.01
2019-03-06T07:15:47.360Z,996.02
2019-03-06T07:16:47.359Z,996.07
2019-03-06T07:17:47.356Z,996.04
2019-03-06T07:18:47.336Z,996.04
2019-03-06T07:19:55.973Z,996.04
2019-03-06T07:21:52.867Z,996.04
2019-03-06T07:22:52.787Z,996.03
2019-03-06T07:23:52.795Z,996.04
2019-03-06T07:24:52.809Z,996.05
2019-03-06T07:25:52.761Z,996.04
2019-03-06T07:26:52.757Z,996.10
2019-03-06T07:27:52.765Z,996.08
2019-03-06T07:28:52.731Z,996.08
2019-03-06T07:29:52.771Z,996.07
2019-03-06T07:30:52.756Z,996.09
2019-03-06T07:31:52.715Z,996.07
2019-03-06T07:32:52.717Z,996.03
2019-03-06T07:33:52.690Z,996.03
2019-03-06T07:34:52.680Z,996.07
2019-03-06T07:35:52.679Z,996.06
2019-03-06T07:36:52.720Z,996.06
2019-03-06T07:37:52.654Z,996.05
2019-03-06T07:38:52.652Z,996.03
2019-03-06T07:39:52.676Z,996.03
2019-03-06T07:40:52.649Z,996.05
2019-03-06T07:41:52.629Z,996.07
2019-03-06T07:42:52.636Z,996.04
2019-03-06T07:43:52.649Z,995.99
2019-03-06T07:44:52.638Z,995.98
2019-03-06T07:45:52.584Z,996.02
2019-03-06T07:46:52.591Z,996.02
2019-03-06T07:47:52.578Z,995.97
2019-03-06T07:48:52.587Z,995.97
2019-03-06T07:49:52.565Z,995.95
2019-03-06T07:50:52.567Z,995.97
2019-03-06T07:51:52.550Z,995.93
2019-03-06T07:52:52.530Z,995.95
2019-03-06T07:53:52.529Z,995.93
2019-03-06T07:54:52.522Z,995.94
2019-03-06T07:55:52.533Z,995.92
2019-03-06T07:56:52.520Z,995.89
2019-03-06T07:57:52.497Z,995.94
2019-03-06T07:58:52.524Z,995.92
2019-03-06T07:59:52.493Z,995.94
2019-03-06T08:00:52.485Z,995.93
2019-03-06T08:01:52.479Z,995.92
2019-03-06T08:02:52.517Z,995.94
2019-03-06T08:03:52.472Z,995.95
2019-03-06T08:04:52.459Z,995.94
2019-03-06T08:05:52.477Z,995.97
2019-03-06T08:06:52.430Z,995.93
2019-03-06T08:07:52.423Z,995.93
2019-03-06T08:09:01.056Z,995.93
2019-03-06T08:10:57.989Z,995.91
2019-03-06T08:11:57.770Z,995.87
2019-03-06T08:12:57.743Z,995.83
2019-03-06T08:13:57.759Z,995.80
2019-03-06T08:14:57.723Z,995.80
2019-03-06T08:15:57.755Z,995.81
2019-03-06T08:16:57.709Z,995.86
2019-03-06T08:17:57.739Z,995.78
2019-03-06T08:18:57.735Z,995.76
2019-03-06T08:19:57.718Z,995.71
2019-03-06T08:20:57.802Z,995.68
2019-03-06T08:21:57.754Z,995.74
2019-03-06T08:22:57.677Z,995.71
2019-03-06T08:23:57.747Z,995.67
2019-03-06T08:24:57.664Z,995.72
2019-03-06T08:25:57.646Z,995.68
2019-03-06T08:26:57.662Z,995.68
2019-03-06T08:27:57.654Z,995.66
2019-03-06T08:28:57.659Z,995.67
2019-03-06T08:29:57.617Z,995.66
2019-03-06T08:30:57.611Z,995.68
2019-03-06T08:31:57.604Z,995.63
2019-03-06T08:32:57.624Z,995.64
2019-03-06T08:33:57.617Z,995.67
2019-03-06T08:34:57.677Z,995.67
2019-03-06T08:35:57.619Z,995.67
2019-03-06T08:36:57.566Z,995.64
2019-03-06T08:37:57.575Z,995.64
2019-03-06T08:38:57.551Z,995.60
2019-03-06T08:39:57.616Z,995.66
2019-03-06T08:41:04.336Z,995.68
2019-03-06T08:41:57.557Z,995.65
2019-03-06T08:42:57.543Z,995.63
2019-03-06T08:43:57.514Z,995.65
2019-03-06T08:44:57.556Z,995.63
2019-03-06T08:45:57.571Z,995.59
2019-03-06T08:46:57.539Z,995.58
2019-03-06T08:47:57.520Z,995.58
2019-03-06T08:48:57.526Z,995.56
2019-03-06T08:49:57.498Z,995.51
2019-03-06T08:50:57.498Z,995.53
2019-03-06T08:51:57.462Z,995.48
2019-03-06T08:52:58.830Z,995.48
2019-03-06T08:53:57.445Z,995.45
2019-03-06T08:54:57.545Z,995.45
2019-03-06T08:55:57.463Z,995.41
2019-03-06T08:56:57.446Z,995.36
2019-03-06T08:57:57.445Z,995.34
2019-03-06T08:58:57.436Z,995.30
2019-03-06T08:59:57.403Z,995.29
2019-03-06T09:00:57.589Z,995.28
2019-03-06T09:02:00.811Z,995.29
2019-03-06T09:02:57.405Z,995.19
2019-03-06T09:03:57.431Z,995.20
2019-03-06T09:04:57.399Z,995.22
2019-03-06T09:05:57.379Z,995.25
2019-03-06T09:06:57.358Z,995.25
2019-03-06T09:07:57.405Z,995.20
2019-03-06T09:08:57.346Z,995.20
2019-03-06T09:09:57.338Z,995.20
2019-03-06T09:11:02.694Z,995.14
2019-03-06T09:11:57.345Z,995.09
2019-03-06T09:12:57.361Z,995.06
2019-03-06T09:13:57.358Z,995.05
2019-03-06T09:14:57.340Z,995.02
2019-03-06T09:15:57.369Z,995.01
2019-03-06T09:16:57.337Z,995.04
2019-03-06T09:17:57.296Z,995.06
2019-03-06T09:18:57.345Z,995.04
2019-03-06T09:19:57.302Z,995.07
2019-03-06T09:20:57.611Z,995.06
2019-03-06T09:21:57.280Z,995.07
2019-03-06T09:22:57.324Z,995.05
2019-03-06T09:23:57.329Z,994.97
2019-03-06T09:24:57.273Z,994.96
2019-03-06T09:25:57.297Z,994.89
2019-03-06T09:26:57.270Z,994.85
2019-03-06T09:27:57.263Z,994.81
2019-03-06T09:29:00.946Z,994.79
2019-03-06T09:29:57.219Z,994.78
2019-03-06T09:30:57.211Z,994.76
2019-03-06T09:31:57.236Z,994.74
2019-03-06T09:32:57.216Z,994.69
2019-03-06T09:33:57.201Z,994.65
2019-03-06T09:34:57.201Z,994.58
2019-03-06T09:35:57.236Z,994.53
2019-03-06T09:36:57.216Z,994.59
2019-03-06T09:37:57.232Z,994.48
2019-03-06T09:38:57.213Z,994.49
2019-03-06T09:39:57.189Z,994.47
2019-03-06T09:40:57.254Z,994.45
2019-03-06T09:41:57.169Z,994.48
2019-03-06T09:42:57.159Z,994.46
2019-03-06T09:43:57.170Z,994.43
2019-03-06T09:44:57.183Z,994.38
2019-03-06T09:45:57.135Z,994.40
2019-03-06T09:46:57.210Z,994.38
2019-03-06T09:47:57.125Z,994.36
2019-03-06T09:48:57.139Z,994.31
2019-03-06T09:49:57.118Z,994.30
2019-03-06T09:50:57.105Z,994.31
2019-03-06T09:51:57.141Z,994.31
2019-03-06T09:52:57.141Z,994.31
2019-03-06T09:53:57.140Z,994.29
2019-03-06T09:54:57.157Z,994.28
2019-03-06T09:55:57.154Z,994.28
2019-03-06T09:56:57.112Z,994.29
2019-03-06T09:57:57.104Z,994.25
2019-03-06T09:58:57.094Z,994.27
2019-03-06T09:59:57.069Z,994.21
2019-03-06T10:00:57.081Z,994.17
2019-03-06T10:02:06.318Z,994.15
2019-03-06T10:02:57.118Z,994.15
2019-03-06T10:03:57.042Z,994.11
2019-03-06T10:04:57.097Z,994.10
2019-03-06T10:05:57.057Z,994.10
2019-03-06T10:06:57.035Z,994.10
2019-03-06T10:07:57.039Z,994.10
2019-03-06T10:08:57.055Z,994.12
2019-03-06T10:09:59.407Z,994.14
2019-03-06T10:10:57.784Z,994.15
2019-03-06T10:11:57.011Z,994.15
2019-03-06T10:12:57.050Z,994.14
2019-03-06T10:13:56.995Z,994.17
2019-03-06T10:14:56.998Z,994.17
2019-03-06T10:15:57.003Z,994.15
2019-03-06T10:16:57.050Z,994.20
2019-03-06T10:17:56.992Z,994.11
2019-03-06T10:18:57.036Z,994.11
2019-03-06T10:19:57.002Z,994.14
2019-03-06T10:20:57.096Z,994.13
2019-03-06T10:21:59.162Z,994.12
2019-03-06T10:22:59.683Z,994.10
2019-03-06T10:23:57.008Z,994.04
2019-03-06T10:24:56.992Z,993.98
2019-03-06T10:25:57.005Z,993.93
2019-03-06T10:26:56.967Z,993.86
2019-03-06T10:28:06.035Z,993.83
2019-03-06T10:28:56.981Z,993.79
2019-03-06T10:29:56.975Z,993.79
2019-03-06T10:31:56.977Z,993.70
2019-03-06T10:32:56.974Z,993.72
2019-03-06T10:33:56.914Z,993.74
2019-03-06T10:34:56.916Z,993.74
2019-03-06T10:35:56.966Z,993.78
2019-03-06T10:36:56.958Z,993.77
2019-03-06T10:37:56.934Z,993.75
2019-03-06T10:38:56.915Z,993.72
2019-03-06T10:39:56.942Z,993.72
2019-03-06T10:40:56.921Z,993.70
2019-03-06T10:41:56.892Z,993.71
2019-03-06T10:42:56.876Z,993.69
2019-03-06T10:43:56.982Z,993.68
2019-03-06T10:44:56.897Z,993.69
2019-03-06T10:45:56.888Z,993.67
2019-03-06T10:46:57.085Z,993.69
2019-03-06T10:47:56.933Z,993.70
2019-03-06T10:48:56.884Z,993.70
2019-03-06T10:49:57.053Z,993.69
2019-03-06T10:50:56.966Z,993.64
2019-03-06T10:51:56.929Z,993.67
2019-03-06T10:52:56.934Z,993.63
2019-03-06T10:53:56.841Z,993.59
2019-03-06T10:54:57.690Z,993.51
2019-03-06T10:55:56.915Z,993.52
2019-03-06T10:56:56.978Z,993.50
2019-03-06T10:57:56.829Z,993.50
2019-03-06T10:58:56.872Z,993.51
2019-03-06T10:59:56.843Z,993.48
2019-03-06T11:00:56.859Z,993.45
2019-03-06T11:01:56.869Z,993.42
2019-03-06T11:02:57.038Z,993.36
2019-03-06T11:03:56.793Z,993.35
2019-03-06T11:04:56.791Z,993.33
2019-03-06T11:05:56.812Z,993.35
2019-03-06T11:06:56.894Z,993.30
2019-03-06T11:07:56.847Z,993.26
2019-03-06T11:08:56.803Z,993.27
2019-03-06T11:09:56.823Z,993.27
2019-03-06T11:10:56.931Z,993.19
2019-03-06T11:11:56.761Z,993.18
2019-03-06T11:12:56.860Z,993.17
2019-03-06T11:14:05.769Z,993.13
2019-03-06T11:14:56.796Z,993.13
2019-03-06T11:15:56.938Z,993.10
2019-03-06T11:16:56.817Z,993.12
2019-03-06T11:17:56.798Z,993.07
2019-03-06T11:18:56.949Z,993.09
2019-03-06T11:19:56.941Z,993.07
2019-03-06T11:20:56.878Z,993.02
2019-03-06T11:21:56.818Z,993.00
2019-03-06T11:22:56.882Z,993.02
2019-03-06T11:23:56.753Z,992.94
2019-03-06T11:24:56.851Z,992.97
2019-03-06T11:25:56.831Z,992.93
2019-03-06T11:26:57.059Z,992.86
2019-03-06T11:27:56.727Z,992.87
2019-03-06T11:28:56.769Z,992.90
2019-03-06T11:29:56.901Z,992.89
2019-03-06T11:30:56.767Z,992.87
2019-03-06T11:31:57.688Z,992.81
2019-03-06T11:32:56.720Z,992.78
2019-03-06T11:33:56.698Z,992.77
2019-03-06T11:34:56.707Z,992.72
2019-03-06T11:35:56.691Z,992.73
2019-03-06T11:36:56.755Z,992.70
2019-03-06T11:37:56.702Z,992.67
2019-03-06T11:38:56.688Z,992.63
2019-03-06T11:39:56.701Z,992.57
2019-03-06T11:40:56.711Z,992.55
2019-03-06T11:41:56.664Z,992.51
2019-03-06T11:42:56.684Z,992.60
2019-03-06T11:43:56.701Z,992.56
2019-03-06T11:44:56.692Z,992.53
2019-03-06T11:45:56.693Z,992.52
2019-03-06T11:46:56.681Z,992.53
2019-03-06T11:47:56.678Z,992.50
2019-03-06T11:48:56.718Z,992.50
2019-03-06T11:49:56.674Z,992.46
2019-03-06T11:50:56.650Z,992.44
2019-03-06T11:51:56.714Z,992.45
2019-03-06T11:52:56.694Z,992.42
2019-03-06T11:53:56.640Z,992.41
2019-03-06T11:55:05.769Z,992.38
2019-03-06T11:55:56.633Z,992.43
2019-03-06T11:56:56.627Z,992.43
2019-03-06T11:57:56.637Z,992.37
2019-03-06T11:58:56.641Z,992.38
2019-03-06T11:59:56.636Z,992.30
2019-03-06T12:00:56.657Z,992.27
2019-03-06T12:01:56.657Z,992.25
2019-03-06T12:02:56.705Z,992.23
2019-03-06T12:03:56.627Z,992.25
2019-03-06T12:04:56.615Z,992.24
2019-03-06T12:05:56.609Z,992.18
2019-03-06T12:06:56.646Z,992.13
2019-03-06T12:07:56.599Z,992.12
2019-03-06T12:08:56.597Z,992.08
2019-03-06T12:09:56.609Z,992.09
2019-03-06T12:10:56.770Z,992.11
2019-03-06T12:11:56.586Z,992.06
2019-03-06T12:12:56.594Z,992.04
2019-03-06T12:13:56.582Z,992.02
2019-03-06T12:14:56.581Z,992.01
2019-03-06T12:15:56.589Z,991.99
2019-03-06T12:16:56.580Z,991.99
2019-03-06T12:17:56.610Z,991.97
2019-03-06T12:18:56.574Z,992.00
2019-03-06T12:19:56.602Z,992.02
2019-03-06T12:20:56.636Z,991.98
2019-03-06T12:21:56.682Z,992.02
2019-03-06T12:22:56.679Z,991.97
2019-03-06T12:23:56.654Z,991.91
2019-03-06T12:24:56.575Z,991.93
2019-03-06T12:25:56.588Z,991.90
2019-03-06T12:26:56.592Z,991.89
2019-03-06T12:27:56.650Z,991.92
2019-03-06T12:28:56.561Z,991.83
2019-03-06T12:29:56.578Z,991.83
2019-03-06T12:30:56.565Z,991.81
2019-03-06T12:31:56.576Z,991.81
2019-03-06T12:32:56.578Z,991.79
2019-03-06T12:33:56.554Z,991.79
2019-03-06T12:34:56.538Z,991.74
2019-03-06T12:35:56.572Z,991.76
2019-03-06T12:36:56.594Z,991.71
2019-03-06T12:37:56.756Z,991.73
2019-03-06T12:38:56.589Z,991.71
2019-03-06T12:39:56.698Z,991.69
2019-03-06T12:40:56.553Z,991.64
2019-03-06T12:41:56.552Z,991.60
2019-03-06T12:42:56.547Z,991.61
2019-03-06T12:43:56.551Z,991.59
2019-03-06T12:44:56.672Z,991.58
2019-03-06T12:45:56.540Z,991.57
2019-03-06T12:46:56.520Z,991.54
2019-03-06T12:47:56.564Z,991.52
2019-03-06T12:48:56.527Z,991.56
2019-03-06T12:50:05.280Z,991.53